Time;durP1;ratioP1;P1;durP2;ratioP2;P2;SDS_P1;SDS_P2;PMS_P1;PMS_P2;Temp;Humidity;BMP_temperature;BMP_pressure;BME280_temperature;BME280_humidity;BME280_pressure;Samples;Min_cycle;Max_cycle;Signal;HPM_P1;HPM_P2
2022/07/11 00:02:19;;;;;;;4.65;1.98;;;;;;;14.32;70.70;100491.64;2066846;84;29336;-71
2022/07/11 00:05:21;;;;;;;6.50;2.27;;;;;;;14.32;70.63;100497.49;2066764;86;27918;-69
2022/07/11 00:08:25;;;;;;;7.62;3.08;;;;;;;14.32;70.73;100496.14;2067482;85;28641;-70
2022/07/11 00:11:27;;;;;;;10.93;2.50;;;;;;;14.30;70.59;100490.86;2066859;84;31076;-70
2022/07/11 00:14:30;;;;;;;6.80;2.37;;;;;;;14.27;70.53;100492.39;2067705;85;32974;-70
2022/07/11 00:17:33;;;;;;;5.92;2.17;;;;;;;14.27;70.76;100492.39;2067673;86;29399;-70
2022/07/11 00:20:38;;;;;;;6.28;2.50;;;;;;;14.25;70.67;100484.42;2067488;85;27689;-71
2022/07/11 00:23:40;;;;;;;5.53;2.42;;;;;;;14.24;70.85;100484.50;2067407;86;28753;-71
2022/07/11 00:26:42;;;;;;;7.33;2.33;;;;;;;14.24;70.96;100487.19;2067658;84;31072;-71
2022/07/11 00:29:45;;;;;;;6.42;2.65;;;;;;;14.22;70.64;100483.75;2067572;85;32965;-71
2022/07/11 00:32:48;;;;;;;4.55;2.02;;;;;;;14.22;70.64;100483.75;2067685;86;29272;-74
2022/07/11 00:35:50;;;;;;;4.80;2.15;;;;;;;14.22;71.02;100485.10;2067421;86;27587;-73
2022/07/11 00:38:52;;;;;;;10.00;2.72;;;;;;;14.08;71.02;100459.00;2067728;86;28640;-77
2022/07/11 00:41:56;;;;;;;4.45;2.40;;;;;;;14.08;71.02;100459.00;2067655;86;31054;-74
2022/07/11 00:44:58;;;;;;;7.58;2.60;;;;;;;14.19;70.96;100479.89;2067377;85;32982;-77
2022/07/11 00:48:00;;;;;;;6.33;2.27;;;;;;;14.19;71.10;100478.55;2067627;84;29340;-74
2022/07/11 00:51:04;;;;;;;4.30;2.20;;;;;;;14.18;71.20;100474.97;2067606;84;27743;-72
2022/07/11 00:54:08;;;;;;;10.30;2.40;;;;;;;14.17;71.08;100473.23;2067639;86;28628;-72
2022/07/11 00:57:10;;;;;;;9.37;2.60;;;;;;;14.16;71.13;100468.81;2067896;85;31025;-72
2022/07/11 01:00:13;;;;;;;7.90;2.60;;;;;;;14.16;71.24;100469.30;2048163;86;33041;-72
2022/07/11 01:03:16;;;;;;;7.10;2.17;;;;;;;14.14;71.11;100468.06;2067640;86;29340;-73
2022/07/11 01:06:18;;;;;;;4.87;2.27;;;;;;;14.10;71.01;100470.06;2067859;84;27696;-72
2022/07/11 01:09:20;;;;;;;7.20;2.65;;;;;;;14.07;70.96;100469.39;2067632;85;28671;-71
2022/07/11 01:12:22;;;;;;;7.83;2.90;;;;;;;14.02;70.86;100470.14;2067742;84;31138;-71
2022/07/11 01:15:24;;;;;;;6.60;2.50;;;;;;;13.93;70.78;100467.07;2067605;85;32981;-71
2022/07/11 01:18:27;;;;;;;7.28;2.20;;;;;;;13.86;70.79;100468.39;2067399;84;29517;-72
2022/07/11 01:21:39;;;;;;;8.83;3.27;;;;;;;13.76;70.66;100467.23;2067804;86;27929;-73
2022/07/11 01:24:47;;;;;;;9.28;2.60;;;;;;;13.65;70.67;100466.52;2067378;85;27985;-71
2022/07/11 01:27:49;;;;;;;10.25;2.90;;;;;;;13.52;70.47;100466.38;2067691;86;31035;-71
2022/07/11 01:30:51;;;;;;;6.92;2.50;;;;;;;13.40;70.47;100464.39;2067597;86;32972;-72
2022/07/11 01:33:52;;;;;;;7.53;2.27;;;;;;;13.27;70.52;100466.92;2067758;86;29276;-71
2022/07/11 01:36:54;;;;;;;7.45;3.15;;;;;;;13.15;70.60;100466.69;2067560;86;27616;-74
2022/07/11 01:39:56;;;;;;;6.25;2.40;;;;;;;13.04;70.62;100465.11;2067597;86;28626;-71
2022/07/11 01:42:58;;;;;;;9.63;2.60;;;;;;;12.92;70.65;100469.36;2067628;85;31006;-72
2022/07/11 01:46:00;;;;;;;11.10;2.50;;;;;;;12.81;70.78;100467.27;2067628;84;32937;-72
2022/07/11 01:49:01;;;;;;;7.72;2.77;;;;;;;12.70;70.72;100458.45;2067694;86;29322;-71
2022/07/11 01:52:06;;;;;;;6.50;2.77;;;;;;;12.58;70.73;100465.38;2067830;86;27633;-73
2022/07/11 01:55:11;;;;;;;6.78;2.62;;;;;;;12.48;70.81;100463.31;2067982;84;28654;-71
2022/07/11 01:58:12;;;;;;;;;;;;;;;12.37;70.79;100462.55;2070253;86;31034;-73
2022/07/11 02:01:15;;;;;;;10.65;2.62;;;;;;;12.25;70.81;100460.91;2067366;86;32976;-72
2022/07/11 02:04:17;;;;;;;6.83;2.33;;;;;;;12.15;71.07;100455.65;2067374;85;29342;-72
2022/07/11 02:08:11;;;;;;;9.88;2.70;;;;;;;12.05;71.02;100461.98;2067616;85;27792;-72
2022/07/11 02:10:23;;;;;;;6.67;2.70;;;;;;;11.97;71.02;100462.84;2060949;85;28667;-73
2022/07/11 02:13:25;;;;;;;10.05;2.80;;;;;;;11.89;71.05;100466.40;2063504;86;31253;-77
2022/07/11 02:16:27;;;;;;;10.32;2.85;;;;;;;11.79;71.04;100462.87;2064083;86;33013;-72
2022/07/11 02:19:29;;;;;;;8.90;2.40;;;;;;;11.74;71.05;100472.11;2024469;87;29402;-74
2022/07/11 02:22:34;;;;;;;8.78;3.17;;;;;;;11.66;71.05;100472.02;2024837;87;27559;-72
2022/07/11 02:25:38;;;;;;;8.93;2.83;;;;;;;11.59;71.02;100469.73;2024119;87;28731;-71
2022/07/11 02:28:40;;;;;;;4.67;2.40;;;;;;;11.50;71.03;100472.41;2023981;87;31085;-70
2022/07/11 02:31:42;;;;;;;7.50;3.08;;;;;;;11.42;71.07;100476.82;2023787;87;33012;-72
2022/07/11 02:34:44;;;;;;;6.30;2.20;;;;;;;11.34;71.07;100481.23;2024606;87;29305;-75
2022/07/11 02:37:45;;;;;;;5.70;2.42;;;;;;;11.27;71.25;100478.94;2024785;87;27701;-71
2022/07/11 02:40:47;;;;;;;6.62;2.55;;;;;;;11.20;71.37;100478.38;2024701;87;28680;-71
2022/07/11 02:43:49;;;;;;;6.95;2.12;;;;;;;11.15;71.61;100483.08;2024667;87;31069;-71
2022/07/11 02:46:51;;;;;;;5.45;2.72;;;;;;;11.10;71.60;100486.00;2024378;87;33072;-71
2022/07/11 02:49:53;;;;;;;6.28;2.70;;;;;;;11.04;71.63;100484.94;2024676;87;29334;-71
2022/07/11 02:52:55;;;;;;;13.22;2.37;;;;;;;10.98;71.67;100486.60;2024811;87;27882;-72
2022/07/11 02:55:57;;;;;;;5.62;2.65;;;;;;;10.92;71.70;100483.27;2024617;87;28612;-72
2022/07/11 02:58:59;;;;;;;12.13;2.77;;;;;;;10.87;71.83;100486.62;2000331;87;31165;-75
2022/07/11 03:02:04;;;;;;;11.55;2.62;;;;;;;10.84;71.99;100490.79;2024650;87;33003;-71
2022/07/11 03:05:07;;;;;;;7.72;2.90;;;;;;;10.82;72.02;100487.34;2024478;87;29321;-71
2022/07/11 03:08:09;;;;;;;11.20;3.95;;;;;;;10.82;72.26;100487.80;2024813;87;27983;-71
2022/07/11 03:11:11;;;;;;;6.28;2.92;;;;;;;10.85;72.33;100488.99;2046019;85;28636;-70
2022/07/11 03:14:14;;;;;;;16.10;3.22;;;;;;;10.90;72.67;100486.97;2056562;86;31060;-71
2022/07/11 03:17:17;;;;;;;9.15;3.83;;;;;;;11.01;72.81;100485.09;2056859;86;33038;-71
2022/07/11 03:20:19;;;;;;;8.45;3.22;;;;;;;11.12;72.83;100478.75;2056906;86;29319;-70
2022/07/11 03:23:21;;;;;;;12.40;3.35;;;;;;;11.24;72.89;100483.50;2032087;86;27651;-72
2022/07/11 03:26:26;;;;;;;9.90;3.52;;;;;;;11.39;72.96;100481.88;2055961;86;28617;-71
2022/07/11 03:29:30;;;;;;;;;;;;;;;11.52;73.03;100478.56;2059138;86;31015;-70
2022/07/11 03:32:33;;;;;;;6.40;3.47;;;;;;;11.64;72.82;100481.95;2073535;85;33423;-69
2022/07/11 03:35:41;;;;;;;8.68;3.35;;;;;;;11.77;72.63;100484.00;2073618;85;29341;-70
2022/07/11 03:38:43;;;;;;;9.05;3.30;;;;;;;11.88;72.41;100482.11;2073840;85;27945;-71
2022/07/11 03:41:45;;;;;;;12.03;3.70;;;;;;;11.98;72.16;100482.92;2073751;85;28623;-73
2022/07/11 03:44:46;;;;;;;9.60;3.22;;;;;;;12.06;71.90;100489.23;2073551;85;31011;-71
2022/07/11 03:47:48;;;;;;;10.53;3.10;;;;;;;12.11;71.87;100484.50;2073513;85;32946;-74
2022/07/11 03:50:50;;;;;;;10.40;2.85;;;;;;;12.17;71.43;100488.67;2072882;85;29327;-73
2022/07/11 03:53:52;;;;;;;9.43;2.80;;;;;;;12.18;71.24;100490.41;2072962;85;27756;-72
2022/07/11 03:56:54;;;;;;;11.68;3.83;;;;;;;12.22;71.28;100497.36;2073658;85;28675;-71
2022/07/11 03:59:56;;;;;;;9.83;3.10;;;;;;;12.24;71.09;100493.23;2073695;85;31536;-73
2022/07/11 04:02:58;;;;;;;10.00;2.92;;;;;;;12.25;70.98;100498.52;2073646;85;32941;-72
2022/07/11 04:06:00;;;;;;;12.07;3.20;;;;;;;12.29;70.97;100497.41;2073735;85;29349;-72
2022/07/11 04:09:02;;;;;;;10.25;3.42;;;;;;;12.34;70.98;100501.17;2073811;85;27972;-74
2022/07/11 04:12:05;;;;;;;10.82;3.85;;;;;;;12.39;70.82;100493.75;2060489;85;28744;-72
2022/07/11 04:15:09;;;;;;;14.65;2.95;;;;;;;12.45;70.78;100500.61;2058587;86;31299;-71
2022/07/11 04:18:11;;;;;;;9.78;3.02;;;;;;;12.51;70.82;100511.48;2058887;86;32986;-77
2022/07/11 04:21:13;;;;;;;11.45;3.65;;;;;;;12.57;70.79;100503.11;2058752;86;29323;-72
2022/07/11 04:24:15;;;;;;;11.40;3.25;;;;;;;12.63;70.57;100506.81;2058838;86;27623;-72
2022/07/11 04:27:17;;;;;;;12.82;4.22;;;;;;;12.71;70.75;100500.52;2058590;86;28739;-72
2022/07/11 04:30:19;;;;;;;13.93;3.22;;;;;;;12.76;70.44;100502.94;2057842;86;31032;-71
2022/07/11 04:33:22;;;;;;;13.48;3.08;;;;;;;12.81;70.25;100508.09;2057519;86;33105;-72
2022/07/11 04:36:24;;;;;;;15.80;3.62;;;;;;;12.88;70.20;100509.00;2058637;86;29369;-72
2022/07/11 04:39:26;;;;;;;8.95;3.05;;;;;;;12.94;69.95;100511.82;2058758;86;27731;-73
2022/07/11 04:42:28;;;;;;;10.43;2.92;;;;;;;12.99;69.86;100519.63;2058755;86;28637;-72
2022/07/11 04:45:30;;;;;;;13.93;3.35;;;;;;;13.05;69.91;100520.14;2058690;86;31224;-73
2022/07/11 04:48:32;;;;;;;6.97;3.00;;;;;;;13.42;70.50;100523.06;2058413;86;33170;-73
2022/07/11 04:51:35;;;;;;;11.83;3.05;;;;;;;14.40;71.33;100520.31;2058808;86;29368;-72
2022/07/11 04:54:37;;;;;;;10.45;3.40;;;;;;;15.84;70.58;100511.52;2058727;86;27681;-71
2022/07/11 04:57:39;;;;;;;12.25;2.77;;;;;;;17.34;69.01;100516.29;2058691;86;28731;-73
2022/07/11 05:00:41;;;;;;;11.20;2.83;;;;;;;17.72;66.23;100516.56;2058659;86;31023;-73
2022/07/11 05:03:44;;;;;;;9.43;2.87;;;;;;;17.99;65.46;100522.25;2058691;86;32989;-71
2022/07/11 05:06:46;;;;;;;8.05;2.40;;;;;;;18.12;65.05;100528.91;2058747;86;29337;-72
2022/07/11 05:09:49;;;;;;;6.10;2.30;;;;;;;19.20;65.34;100520.81;2058480;86;27891;-72
2022/07/11 05:12:51;;;;;;;4.35;2.20;;;;;;;20.50;63.88;100523.94;2058681;86;28667;-72
2022/07/11 05:15:53;;;;;;;6.15;2.80;;;;;;;21.24;61.37;100521.45;2058632;86;31087;-72
2022/07/11 05:18:55;;;;;;;9.48;2.90;;;;;;;21.49;60.25;100524.63;2058316;86;33033;-74
2022/07/11 05:21:57;;;;;;;10.00;2.50;;;;;;;21.52;58.92;100520.74;2057575;86;29382;-74
2022/07/11 05:24:59;;;;;;;10.48;3.25;;;;;;;21.58;57.78;100523.42;2057384;86;27672;-72
2022/07/11 05:28:02;;;;;;;10.60;2.45;;;;;;;22.03;58.39;100514.68;2057274;86;28696;-72
2022/07/11 05:31:04;;;;;;;6.33;2.30;;;;;;;22.31;56.48;100514.75;2058282;86;31000;-73
2022/07/11 05:34:06;;;;;;;8.95;2.33;;;;;;;22.78;56.59;100513.03;2058567;86;32955;-76
2022/07/11 05:37:08;;;;;;;8.45;2.42;;;;;;;23.66;55.55;100509.28;2058276;86;29379;-75
2022/07/11 05:40:12;;;;;;;10.58;2.30;;;;;;;24.50;54.21;100510.77;2058297;86;27723;-72
2022/07/11 05:43:14;;;;;;;7.62;2.55;;;;;;;25.02;52.59;100507.12;2058736;86;28671;-74
2022/07/11 05:46:16;;;;;;;6.70;2.15;;;;;;;25.50;51.62;100508.80;2057693;86;31231;-72
2022/07/11 05:49:19;;;;;;;14.98;2.80;;;;;;;25.98;50.44;100513.65;2058565;86;33034;-72
2022/07/11 05:52:21;;;;;;;11.15;2.75;;;;;;;26.29;49.65;100511.05;2058377;86;29374;-73
2022/07/11 05:55:24;;;;;;;7.97;2.40;;;;;;;26.64;48.29;100510.28;2058658;86;27713;-72
2022/07/11 05:58:26;;;;;;;6.28;2.27;;;;;;;26.89;47.67;100507.98;2058403;86;28661;-73
2022/07/11 06:01:28;;;;;;;11.12;2.90;;;;;;;27.13;46.24;100512.02;2057550;86;30982;-73
2022/07/11 06:04:33;;;;;;;5.70;1.87;;;;;;;27.22;45.70;100510.58;2058040;86;32989;-72
2022/07/11 06:10:57;;;;;;;6.40;2.12;;;;;;;27.69;44.52;100497.75;2058210;86;27989;-70
2022/07/11 06:13:59;;;;;;;6.65;2.42;;;;;;;28.11;43.84;100497.75;2058425;86;28778;-73
2022/07/11 06:17:03;;;;;;;9.73;2.12;;;;;;;28.59;43.38;100500.17;2031133;86;30941;-67
2022/07/11 06:20:11;;;;;;;6.62;1.90;;;;;;;29.19;42.01;100507.02;2055674;86;33018;-66
2022/07/11 06:23:20;;;;;;;8.58;2.10;;;;;;;29.41;41.13;100509.84;2056046;86;29351;-66
2022/07/11 06:26:27;;;;;;;8.00;1.80;;;;;;;28.93;40.37;100515.31;2056095;86;27891;-66
2022/07/11 06:29:32;;;;;;;7.20;2.22;;;;;;;28.41;40.65;100518.45;2056047;86;28673;-66
2022/07/11 06:32:39;;;;;;;6.55;2.15;;;;;;;27.85;40.08;100518.77;2056039;86;31074;-66
2022/07/11 06:35:45;;;;;;;10.43;2.20;;;;;;;27.08;40.07;100514.94;2054446;86;32998;-66
2022/07/11 06:38:56;;;;;;;6.65;2.20;;;;;;;26.33;40.81;100521.17;2055782;86;29331;-65
2022/07/11 06:42:00;;;;;;;6.97;2.10;;;;;;;25.57;41.03;100522.19;2056020;86;27860;-72
2022/07/11 06:45:04;;;;;;;6.80;2.05;;;;;;;24.91;41.44;100522.47;2058593;86;28695;-71
2022/07/11 06:48:07;;;;;;;6.10;2.00;;;;;;;24.29;41.83;100521.61;2058926;86;31048;-73
2022/07/11 06:51:11;;;;;;;8.18;1.80;;;;;;;23.69;42.15;100530.50;2058691;86;32977;-73
2022/07/11 06:54:14;;;;;;;6.47;1.90;;;;;;;23.19;42.75;100532.16;2058378;86;29431;-73
2022/07/11 06:57:18;;;;;;;8.65;2.15;;;;;;;22.74;43.38;100533.84;2057866;86;33200;-73
2022/07/11 07:00:24;;;;;;;7.22;2.22;;;;;;;22.32;43.72;100535.59;2031005;86;28708;-71
2022/07/11 07:03:27;;;;;;;6.15;1.50;;;;;;;21.92;44.17;100531.21;2058770;86;31034;-75
2022/07/11 07:06:29;;;;;;;7.30;2.33;;;;;;;21.47;44.72;100529.87;2058820;86;32997;-73
2022/07/11 07:09:32;;;;;;;7.20;1.67;;;;;;;21.09;45.41;100534.59;2058510;86;29390;-71
2022/07/11 07:12:39;;;;;;;7.53;1.90;;;;;;;20.69;46.26;100527.75;2048600;86;27925;-75
2022/07/11 07:15:41;;;;;;;4.87;2.12;;;;;;;20.47;47.21;100533.72;2043730;87;28703;-75
2022/07/11 07:18:45;;;;;;;3.50;1.40;;;;;;;20.29;47.47;100530.77;2043981;86;30979;-77
2022/07/11 07:21:48;;;;;;;9.33;1.90;;;;;;;20.24;48.19;100516.22;2044256;86;33057;-73
2022/07/11 07:24:51;;;;;;;6.08;1.55;;;;;;;20.31;48.29;100518.75;2043697;86;29391;-71
2022/07/11 07:27:54;;;;;;;9.13;1.82;;;;;;;20.43;48.72;100510.52;2043944;87;27711;-71
2022/07/11 07:30:58;;;;;;;6.50;2.00;;;;;;;20.49;48.32;100511.32;2043579;86;28694;-72
2022/07/11 07:34:02;;;;;;;5.72;1.72;;;;;;;20.43;48.41;100519.53;2043676;87;31187;-72
2022/07/11 07:37:05;;;;;;;7.00;1.67;;;;;;;20.36;48.43;100529.22;2043763;87;32983;-70
2022/07/11 07:40:09;;;;;;;9.93;2.77;;;;;;;20.31;48.93;100528.27;2042941;87;29385;-75
2022/07/11 07:43:13;;;;;;;6.83;2.50;;;;;;;20.34;48.66;100538.89;2043079;86;27728;-78
2022/07/11 07:46:16;;;;;;;7.03;1.50;;;;;;;20.48;49.16;100536.81;2043333;87;28708;-69
2022/07/11 07:49:39;;;;;;;4.92;1.70;;;;;;;20.84;49.34;100532.37;2016497;87;31094;-67
2022/07/11 07:52:49;;;;;;;9.93;1.72;;;;;;;21.29;48.80;100527.83;2038280;86;30111;-70
2022/07/11 07:55:52;;;;;;;4.42;1.60;;;;;;;21.63;48.44;100529.33;2043747;87;29347;-66
2022/07/11 07:58:59;;;;;;;6.72;1.52;;;;;;;21.93;48.38;100521.50;2039060;87;28127;-68
2022/07/11 08:02:04;;;;;;;6.08;1.80;;;;;;;22.50;47.92;100516.62;2039655;87;52954;-70
2022/07/11 08:05:09;;;;;;;6.35;2.05;;;;;;;22.70;47.16;100523.34;2043723;86;31097;-68
2022/07/11 08:08:11;;;;;;;;;;;;;;;23.25;46.68;100514.84;2046617;87;33699;-70
2022/07/11 08:11:18;;;;;;;5.30;1.47;;;;;;;23.39;46.43;100515.67;2042026;86;29583;-68
2022/07/11 08:14:29;;;;;;;4.25;1.20;;;;;;;23.81;46.26;100516.44;2055114;86;27742;-67
2022/07/11 08:17:32;;;;;;;5.53;1.75;;;;;;;24.43;46.09;100515.54;2058276;86;28714;-70
2022/07/11 08:20:34;;;;;;;5.10;1.65;;;;;;;25.02;44.99;100507.12;2058545;86;31021;-73
2022/07/11 08:23:37;;;;;;;4.22;1.45;;;;;;;25.53;44.19;100506.25;2058001;86;33012;-68
2022/07/11 08:26:40;;;;;;;7.62;2.42;;;;;;;26.01;43.51;100500.92;2000625;87;29085;-72
2022/07/11 08:29:41;;;;;;;2.37;1.20;;;;;;;26.30;42.80;100493.55;2023726;87;28182;-70
2022/07/11 08:32:44;;;;;;;4.47;1.52;;;;;;;26.19;42.52;100496.66;2023467;87;28540;-70
2022/07/11 08:35:46;;;;;;;4.28;1.70;;;;;;;26.27;42.13;100482.91;2023342;87;31071;-68
2022/07/11 08:38:48;;;;;;;2.10;1.05;;;;;;;26.73;42.05;100489.62;2023687;87;32959;-70
2022/07/11 08:41:50;;;;;;;5.67;1.07;;;;;;;27.20;41.48;100481.89;2023677;87;29330;-73
2022/07/11 08:44:52;;;;;;;4.33;1.00;;;;;;;27.34;40.94;100483.52;2023532;87;27740;-69
2022/07/11 08:47:55;;;;;;;1.62;0.90;;;;;;;27.15;40.19;100478.28;2023313;87;28682;-70
2022/07/11 08:51:00;;;;;;;4.08;1.25;;;;;;;26.61;39.73;100486.44;2023498;87;31209;-69
2022/07/11 08:54:03;;;;;;;3.33;1.00;;;;;;;25.96;39.85;100486.88;2023201;87;33024;-74
2022/07/11 08:57:06;;;;;;;6.72;0.98;;;;;;;25.41;39.85;100501.03;2039733;85;29391;-71
2022/07/11 09:00:10;;;;;;;6.40;1.10;;;;;;;24.87;39.95;100484.95;2072802;85;27995;-74
2022/07/11 09:03:17;;;;;;;3.17;1.70;;;;;;;24.58;40.42;100487.55;2073036;85;28751;-70
2022/07/11 09:06:19;;;;;;;2.87;1.10;;;;;;;24.51;40.87;100492.82;2046209;85;31676;-70
2022/07/11 09:09:22;;;;;;;3.42;0.98;;;;;;;24.65;41.31;100491.36;2073563;85;33083;-69
2022/07/11 09:12:25;;;;;;;5.78;1.00;;;;;;;24.76;41.00;100495.70;2067509;85;29418;-70
2022/07/11 09:15:39;;;;;;;8.00;1.35;;;;;;;24.73;40.60;100493.31;2058567;86;27886;-71
2022/07/11 09:18:42;;;;;;;4.75;1.27;;;;;;;24.42;40.41;100486.44;2058232;86;28885;-70
2022/07/11 09:25:31;;;;;;;3.73;1.20;;;;;;;24.62;40.81;100483.46;2058706;86;33020;-73
2022/07/11 09:28:33;;;;;;;5.28;1.30;;;;;;;24.50;40.75;100483.38;2058292;86;29384;-70
2022/07/11 09:31:38;;;;;;;5.60;1.50;;;;;;;24.43;41.05;100484.54;2058369;86;27719;-72
2022/07/11 09:34:48;;;;;;;1.70;1.00;;;;;;;24.57;41.38;100477.61;2058381;86;28702;-71
2022/07/11 09:37:50;;;;;;;3.02;1.20;;;;;;;24.79;41.08;100481.67;2054102;86;31300;-68
2022/07/11 09:40:52;;;;;;;5.60;1.32;;;;;;;25.01;41.41;100480.20;2058124;86;33089;-69
2022/07/11 09:44:11;;;;;;;5.22;1.32;;;;;;;25.08;41.22;100478.17;2058191;86;29346;-69
2022/07/11 09:47:13;;;;;;;7.37;1.70;;;;;;;25.26;41.08;100483.02;2057647;86;27983;-68
2022/07/11 09:50:25;;;;;;;4.80;1.12;;;;;;;25.33;40.66;100473.08;2057811;86;28660;-74
2022/07/11 09:53:27;;;;;;;3.12;1.10;;;;;;;25.41;40.61;100464.00;2057470;86;31041;-75
2022/07/11 09:56:42;;;;;;;4.30;1.00;;;;;;;25.59;40.75;100461.66;2023644;87;33004;-74
2022/07/11 09:59:47;;;;;;;5.42;1.27;;;;;;;25.72;40.42;100438.70;2002100;87;29474;-69
2022/07/11 10:02:49;;;;;;;;;;;;;;;25.80;39.82;100437.83;1982961;87;27934;-70
2022/07/11 10:05:53;;;;;;;4.03;1.45;;;;;;;25.79;39.75;100445.72;2023718;87;28708;-69
2022/07/11 10:08:58;;;;;;;5.80;0.98;;;;;;;25.85;40.03;100447.75;2023796;87;31068;-69
2022/07/11 10:12:04;;;;;;;6.83;1.30;;;;;;;25.96;39.29;100449.29;2025458;87;33213;-68
2022/07/11 10:15:10;;;;;;;2.70;1.00;;;;;;;25.74;39.41;100451.70;2038029;87;29352;-70
2022/07/11 10:18:33;;;;;;;4.67;2.27;;;;;;;25.53;39.32;100457.70;2037861;87;27689;-70
2022/07/11 10:21:50;;;;;;;3.87;1.25;;;;;;;25.17;39.62;100449.25;2054782;85;28705;-71
2022/07/11 10:25:15;;;;;;;5.03;1.32;;;;;;;24.76;39.60;100453.23;2071351;85;31036;-71
2022/07/11 10:28:41;;;;;;;6.45;1.75;;;;;;;24.30;39.74;100457.63;2069362;85;37645;-69
2022/07/11 10:31:49;;;;;;;4.83;1.10;;;;;;;23.87;41.22;100462.95;2068752;85;29394;-69
2022/07/11 10:35:13;;;;;;;4.67;1.12;;;;;;;23.38;42.62;100469.36;2070673;85;27703;-69
2022/07/11 10:38:20;;;;;;;5.97;1.30;;;;;;;22.97;43.39;100470.59;2042070;85;28563;-70
2022/07/11 10:41:23;;;;;;;2.50;1.05;;;;;;;22.67;44.61;100474.52;2046099;85;32619;-70
2022/07/11 10:44:28;;;;;;;2.95;0.80;;;;;;;22.65;45.37;100471.92;2045960;85;33183;-70
2022/07/11 10:47:45;;;;;;;3.55;1.30;;;;;;;22.63;45.27;100459.44;2073107;85;29436;-71
2022/07/11 10:50:48;;;;;;;4.87;1.27;;;;;;;22.66;45.51;100459.98;2072933;85;27586;-71
2022/07/11 10:53:53;;;;;;;1.27;0.88;;;;;;;22.70;45.78;100453.70;2045575;85;28682;-71
2022/07/11 10:57:41;;;;;;;4.55;0.90;;;;;;;22.69;45.31;100458.32;2071737;85;31028;-73
2022/07/11 11:00:43;;;;;;;3.00;0.90;;;;;;;22.69;45.07;100443.30;2046057;85;32979;-73
2022/07/11 11:03:47;;;;;;;2.05;0.72;;;;;;;22.74;45.03;100442.34;2073192;85;30086;-68
2022/07/11 11:06:57;;;;;;;2.22;0.75;;;;;;;22.82;44.71;100439.34;2073751;85;27781;-71
2022/07/11 11:10:01;;;;;;;5.08;0.70;;;;;;;22.84;44.38;100440.90;2073353;85;28648;-70
2022/07/11 11:13:10;;;;;;;2.40;1.15;;;;;;;22.80;43.88;100444.97;2072336;85;31556;-70
2022/07/11 11:16:38;;;;;;;7.92;0.80;;;;;;;22.89;43.66;100440.47;2077033;85;33006;-76
2022/07/11 11:19:53;;;;;;;1.75;0.65;;;;;;;23.03;43.92;100445.89;2075434;85;27729;-71
2022/07/11 11:23:09;;;;;;;3.12;0.78;;;;;;;23.33;43.88;100443.86;2076510;85;27806;-71
2022/07/11 11:26:20;;;;;;;3.20;1.15;;;;;;;23.58;43.25;100445.44;2075979;85;28716;-74
2022/07/11 11:29:26;;;;;;;5.95;0.88;;;;;;;23.65;42.55;100451.48;2076748;85;31030;-74
2022/07/11 11:32:34;;;;;;;1.40;0.60;;;;;;;23.72;42.22;100444.02;2076635;85;33018;-72
2022/07/11 11:35:36;;;;;;;1.90;0.90;;;;;;;23.85;42.39;100448.56;2077063;85;29489;-77
2022/07/11 11:38:43;;;;;;;1.20;0.90;;;;;;;23.96;41.78;100444.72;2077457;85;28007;-71
2022/07/11 11:41:45;;;;;;;1.80;0.68;;;;;;;23.96;40.91;100442.85;2077174;85;28524;-74
2022/07/11 11:44:53;;;;;;;3.75;1.00;;;;;;;23.87;40.82;100446.53;2076832;85;31108;-71
2022/07/11 11:47:56;;;;;;;1.87;0.98;;;;;;;23.75;40.96;100443.19;2077298;85;33052;-72
2022/07/11 11:51:14;;;;;;;2.05;0.90;;;;;;;23.67;40.81;100451.31;2077341;85;29329;-70
2022/07/11 11:54:25;;;;;;;2.67;1.00;;;;;;;23.55;40.59;100458.05;2074402;85;27858;-70
2022/07/11 11:57:29;;;;;;;3.90;1.12;;;;;;;23.42;41.42;100461.17;2051739;85;28707;-72
2022/07/11 12:00:31;;;;;;;2.45;0.88;;;;;;;23.44;41.72;100458.66;2077738;85;31028;-73
2022/07/11 12:03:54;;;;;;;4.70;1.12;;;;;;;23.34;41.83;100473.77;2077326;85;32967;-74
2022/07/11 12:06:57;;;;;;;2.08;0.80;;;;;;;23.12;41.15;100501.50;2077055;85;29389;-73
2022/07/11 12:10:01;;;;;;;3.80;1.02;;;;;;;22.61;41.45;100505.50;2038214;87;27633;-69
2022/07/11 12:13:04;;;;;;;6.92;2.15;;;;;;;21.98;42.54;100500.12;2029683;87;28712;-73
2022/07/11 12:19:41;;;;;;;4.62;1.02;;;;;;;20.96;44.86;100508.11;2003402;88;33220;-72
2022/07/11 12:22:47;;;;;;;17.37;1.70;;;;;;;20.29;48.27;100526.69;2003496;88;29395;-72
2022/07/11 12:25:51;;;;;;;4.50;1.12;;;;;;;19.47;59.69;100545.34;1982373;88;27764;-70
2022/07/11 12:29:22;;;;;;;3.52;1.07;;;;;;;17.23;62.85;100537.39;2004093;88;28688;-69
2022/07/11 12:32:33;;;;;;;6.20;1.32;;;;;;;17.23;62.85;100537.39;2000528;88;28234;-67
2022/07/11 12:36:02;;;;;;;4.62;1.60;;;;;;;16.58;65.34;100553.33;2000609;88;29525;-68
2022/07/11 12:39:28;;;;;;;3.90;1.15;;;;;;;16.14;65.62;100548.23;2000736;88;29398;-67
2022/07/11 12:42:38;;;;;;;3.90;1.15;;;;;;;15.93;67.84;100560.05;2002233;88;27814;-68
2022/07/11 12:45:51;;;;;;;8.00;1.50;;;;;;;15.61;70.51;100571.16;2000836;88;27938;-67
2022/07/11 12:48:56;;;;;;;6.17;1.32;;;;;;;15.30;72.63;100563.73;1997655;88;31052;-67
2022/07/11 12:52:00;;;;;;;11.15;1.85;;;;;;;15.09;73.58;100605.09;2026091;87;32986;-69
2022/07/11 12:55:04;;;;;;;6.25;0.95;;;;;;;14.92;74.46;100601.63;2052703;86;29339;-69
2022/07/11 12:58:17;;;;;;;15.03;2.10;;;;;;;14.86;74.99;100605.59;2049672;86;27760;-70
2022/07/11 13:01:27;;;;;;;4.25;1.30;;;;;;;14.77;75.38;100638.55;2049300;86;28730;-69
2022/07/11 13:04:44;;;;;;;4.72;1.30;;;;;;;14.71;75.71;100661.83;2049284;86;31092;-68
2022/07/11 13:11:20;;;;;;;3.50;1.17;;;;;;;14.61;76.35;100657.94;2049313;86;29472;-70
2022/07/11 13:17:50;;;;;;;8.63;1.05;;;;;;;14.39;76.22;100642.59;2088035;85;28705;-70
2022/07/11 13:20:52;;;;;;;2.10;1.00;;;;;;;14.51;77.14;100648.20;2088569;85;31024;-70
2022/07/11 13:23:55;;;;;;;1.52;0.98;;;;;;;14.72;77.48;100642.88;2088494;85;32964;-70
2022/07/11 13:27:03;;;;;;;4.55;1.15;;;;;;;15.19;78.36;100623.30;2085303;85;29406;-69
2022/07/11 13:30:12;;;;;;;4.10;1.50;;;;;;;15.40;78.17;100617.95;2085780;84;27992;-69
2022/07/11 13:33:31;;;;;;;4.20;1.17;;;;;;;15.40;78.17;100617.95;2086159;85;29125;-70
2022/07/11 13:36:42;;;;;;;2.33;1.35;;;;;;;15.61;78.11;100611.16;2084966;84;27986;-68
2022/07/11 13:39:54;;;;;;;4.53;1.40;;;;;;;15.82;78.55;100609.83;2085208;85;29440;-68
2022/07/11 13:42:58;;;;;;;2.95;1.20;;;;;;;16.03;78.61;100604.88;2088503;85;29456;-68
2022/07/11 13:46:03;;;;;;;4.37;1.90;;;;;;;16.16;79.14;100581.91;2085720;85;37041;-67
2022/07/11 13:49:12;;;;;;;2.55;1.15;;;;;;;16.40;79.03;100591.04;2085687;85;28649;-67
2022/07/11 13:52:23;;;;;;;2.37;1.27;;;;;;;16.42;78.64;100593.63;2087723;85;28292;-68
2022/07/11 13:55:31;;;;;;;5.67;1.10;;;;;;;16.46;78.73;100592.95;2085625;85;33063;-67
2022/07/11 13:58:37;;;;;;;2.75;0.75;;;;;;;16.38;78.32;100583.52;2085688;85;29330;-67
2022/07/11 14:01:39;;;;;;;1.90;0.90;;;;;;;16.33;78.50;100586.16;2088419;85;27841;-69
2022/07/11 14:04:42;;;;;;;1.65;1.12;;;;;;;16.26;78.48;100584.38;2088614;85;28732;-69
2022/07/11 14:07:45;;;;;;;4.05;0.95;;;;;;;16.21;78.68;100574.36;2062697;85;31017;-69
2022/07/11 14:10:48;;;;;;;1.75;1.00;;;;;;;16.18;78.70;100568.69;2088506;85;33639;-68
2022/07/11 14:13:54;;;;;;;6.75;0.98;;;;;;;16.14;78.90;100567.62;2087627;85;29324;-68
2022/07/11 14:16:57;;;;;;;2.65;1.20;;;;;;;16.17;79.19;100571.47;2088636;85;27707;-71
2022/07/11 14:20:00;;;;;;;5.12;1.02;;;;;;;16.12;78.90;100564.20;2084835;85;28697;-67
2022/07/11 14:23:07;;;;;;;1.87;1.40;;;;;;;16.13;78.97;100561.38;2083953;85;31076;-67
2022/07/11 14:26:12;;;;;;;1.65;0.90;;;;;;;16.17;79.36;100559.31;2084882;85;32978;-67
2022/07/11 14:29:17;;;;;;;3.50;1.15;;;;;;;16.19;79.60;100565.02;2085774;84;29337;-68
2022/07/11 14:32:27;;;;;;;1.55;0.80;;;;;;;16.27;79.82;100565.83;2085696;85;27916;-68
2022/07/11 14:35:33;;;;;;;1.80;0.85;;;;;;;16.31;79.33;100561.07;2059603;85;28712;-68
2022/07/11 14:38:35;;;;;;;3.35;0.70;;;;;;;16.36;79.68;100565.17;2088342;85;32117;-68